Time;durP1;ratioP1;P1;durP2;ratioP2;P2;SDS_P1;SDS_P2;PMS_P1;PMS_P2;Temp;Humidity;BMP_temperature;BMP_pressure;BME280_temperature;BME280_humidity;BME280_pressure;Samples;Min_cycle;Max_cycle;Signal;HPM_P1;HPM_P2
2023/03/12 00:01:14;;;;;;;;;;;;;;;2.97;75.94;92085.16;2055654;70;20208;-75
2023/03/12 00:03:40;;;;;;;;;;;;;;;2.76;77.57;92087.66;2055697;69;20085;-74
2023/03/12 00:06:06;;;;;;;;;;;;;;;3.15;75.85;92088.63;2055953;70;20059;-76
2023/03/12 00:08:32;;;;;;;;;;;;;;;3.06;76.08;92100.41;2055899;69;20046;-74
2023/03/12 00:10:58;;;;;;;;;;;;;;;3.36;74.71;92099.28;2055723;70;20047;-74
2023/03/12 00:13:24;;;;;;;;;;;;;;;2.63;77.43;92104.69;2055683;70;20050;-73
2023/03/12 00:15:49;;;;;;;;;;;;;;;3.07;77.00;92121.38;2055154;69;20082;-72
2023/03/12 00:18:15;;;;;;;;;;;;;;;2.73;76.58;92109.00;2055781;69;20047;-73
2023/03/12 00:20:41;;;;;;;;;;;;;;;2.95;76.87;92109.28;2055868;70;20589;-74
2023/03/12 00:23:06;;;;;;;;;;;;;;;3.22;75.66;92112.81;2055350;70;20061;-75
2023/03/12 00:25:32;;;;;;;;;;;;;;;2.94;76.30;92111.34;2068609;69;20054;-72
2023/03/12 00:27:57;;;;;;;;;;;;;;;2.32;79.60;92110.56;2055647;70;20208;-76
2023/03/12 00:30:23;;;;;;;;;;;;;;;2.56;78.55;92109.00;2068763;69;20047;-72
2023/03/12 00:32:48;;;;;;;;;;;;;;;2.49;79.19;92102.25;2068316;69;20424;-73
2023/03/12 00:35:14;;;;;;;;;;;;;;;2.93;78.02;92106.34;2068546;69;20400;-74
2023/03/12 00:37:39;;;;;;;;;;;;;;;2.97;77.06;92107.38;2055778;70;20496;-73
2023/03/12 00:40:08;;;;;;;;;;;;;;;3.00;76.30;92122.19;2055435;69;20077;-75
2023/03/12 00:42:33;;;;;;;;;;;;;;;2.53;78.64;92113.69;2055137;69;20086;-72
2023/03/12 00:44:58;;;;;;;;;;;;;;;3.03;76.68;92115.50;2055608;70;20049;-74
2023/03/12 00:47:24;;;;;;;;;;;;;;;2.76;77.99;92134.91;2068590;69;20058;-74
2023/03/12 00:49:50;;;;;;;;;;;;;;;2.58;78.48;92133.47;2056031;69;20411;-75
2023/03/12 00:52:15;;;;;;;;;;;;;;;2.64;78.55;92142.28;2068774;69;20046;-74
2023/03/12 00:54:41;;;;;;;;;;;;;;;2.78;77.49;92141.34;2068633;69;20046;-73
2023/03/12 00:57:06;;;;;;;;;;;;;;;2.89;76.23;92128.28;2068681;69;20090;-73
2023/03/12 00:59:34;;;;;;;;;;;;;;;2.72;77.26;92129.03;2068700;69;20472;-73
2023/03/12 01:01:59;;;;;;;;;;;;;;;3.04;75.97;92133.66;2068773;69;20143;-72
2023/03/12 01:04:25;;;;;;;;;;;;;;;3.23;74.90;92130.25;2055508;69;20513;-75
2023/03/12 01:06:51;;;;;;;;;;;;;;;2.99;76.38;92127.03;2055738;69;20142;-72
2023/03/12 01:09:17;;;;;;;;;;;;;;;2.64;76.68;92123.56;2055724;69;20054;-75
2023/03/12 01:11:42;;;;;;;;;;;;;;;2.91;76.41;92134.00;2068623;69;20149;-76
2023/03/12 01:14:08;;;;;;;;;;;;;;;2.80;77.80;92133.19;2055690;69;20050;-74
2023/03/12 01:16:33;;;;;;;;;;;;;;;2.82;76.93;92134.66;2055559;70;20487;-75
2023/03/12 01:18:59;;;;;;;;;;;;;;;2.79;76.82;92139.31;2055729;70;20102;-75
2023/03/12 01:21:25;;;;;;;;;;;;;;;2.88;76.76;92138.66;2068682;69;20109;-72
2023/03/12 01:23:51;;;;;;;;;;;;;;;2.56;77.66;92134.03;2055776;69;20115;-73
2023/03/12 01:26:17;;;;;;;;;;;;;;;2.52;77.64;92153.13;2068477;69;20062;-74
2023/03/12 01:28:43;;;;;;;;;;;;;;;2.20;79.55;92145.69;2055786;70;20050;-73
2023/03/12 01:31:12;;;;;;;;;;;;;;;2.43;78.58;92145.47;2067890;69;20504;-76
2023/03/12 01:33:38;;;;;;;;;;;;;;;2.25;78.91;92147.50;2068343;69;20096;-73
2023/03/12 01:36:04;;;;;;;;;;;;;;;2.49;78.95;92148.75;2055162;70;20078;-76
2023/03/12 01:38:31;;;;;;;;;;;;;;;2.55;77.93;92152.00;2055650;70;20544;-75
2023/03/12 01:40:58;;;;;;;;;;;;;;;2.41;77.90;92145.31;2067941;69;20066;-76
2023/03/12 01:43:31;;;;;;;;;;;;;;;2.49;78.43;92151.53;2068249;69;20770;-74
2023/03/12 01:46:15;;;;;;;;;;;;;;;2.87;76.85;92156.66;2068196;69;20153;-74
2023/03/12 01:48:53;;;;;;;;;;;;;;;2.38;77.47;92155.50;2064203;69;20166;-75
2023/03/12 01:51:20;;;;;;;;;;;;;;;2.57;77.00;92154.97;2065354;69;20813;-74
2023/03/12 01:53:46;;;;;;;;;;;;;;;2.36;77.23;92152.56;2068293;69;20054;-74
2023/03/12 01:56:13;;;;;;;;;;;;;;;2.42;78.46;92152.31;2068630;69;20092;-74
2023/03/12 01:58:41;;;;;;;;;;;;;;;2.47;78.22;92156.91;2067873;69;20652;-73
2023/03/12 02:01:07;;;;;;;;;;;;;;;2.70;76.97;92162.97;2067954;69;20054;-74
2023/03/12 02:03:34;;;;;;;;;;;;;;;2.45;78.43;92165.81;2067965;69;20122;-73
2023/03/12 02:06:10;;;;;;;;;;;;;;;2.50;77.62;92161.31;2055405;69;20090;-74
2023/03/12 02:08:37;;;;;;;;;;;;;;;2.73;76.52;92161.06;2055612;70;20046;-72
2023/03/12 02:11:06;;;;;;;;;;;;;;;2.48;77.06;92166.72;2068620;69;20481;-77
2023/03/12 02:13:32;;;;;;;;;;;;;;;2.32;78.37;92159.84;2068527;69;20058;-74
2023/03/12 02:15:57;;;;;;;;;;;;;;;2.74;76.59;92176.44;2068387;69;20058;-75
2023/03/12 02:18:23;;;;;;;;;;;;;;;2.78;75.85;92171.22;2068403;69;20058;-74
2023/03/12 02:20:57;;;;;;;;;;;;;;;2.75;76.32;92173.09;2068275;69;20053;-76
2023/03/12 02:23:40;;;;;;;;;;;;;;;2.98;75.76;92172.84;2055481;69;20050;-76
2023/03/12 02:26:06;;;;;;;;;;;;;;;2.74;76.21;92185.50;2055719;69;20046;-73
2023/03/12 02:28:32;;;;;;;;;;;;;;;2.40;77.87;92179.97;2068662;69;20557;-76
2023/03/12 02:31:01;;;;;;;;;;;;;;;2.73;77.17;92183.31;2068442;69;20481;-73
2023/03/12 02:33:26;;;;;;;;;;;;;;;2.72;77.08;92184.63;2054907;69;20501;-75
2023/03/12 02:35:53;;;;;;;;;;;;;;;2.55;77.26;92182.56;2068493;69;20050;-73
2023/03/12 02:38:36;;;;;;;;;;;;;;;2.97;75.51;92187.28;2068507;69;20073;-75
2023/03/12 02:41:11;;;;;;;;;;;;;;;2.47;76.78;92185.41;2068407;69;20062;-75
2023/03/12 02:43:37;;;;;;;;;;;;;;;2.54;77.89;92181.09;2068643;69;20059;-75
2023/03/12 02:46:03;;;;;;;;;;;;;;;2.63;77.49;92186.00;2068609;69;20050;-76
2023/03/12 02:48:28;;;;;;;;;;;;;;;2.25;77.93;92189.91;2055328;69;20197;-76
2023/03/12 02:50:54;;;;;;;;;;;;;;;2.59;77.92;92193.28;2055426;70;20093;-75
2023/03/12 02:53:19;;;;;;;;;;;;;;;2.65;76.74;92193.78;2068462;69;20078;-74
2023/03/12 02:55:45;;;;;;;;;;;;;;;2.69;77.17;92196.88;2068508;69;20086;-74
2023/03/12 02:58:11;;;;;;;;;;;;;;;2.68;76.65;92195.41;2055415;70;20046;-75
2023/03/12 03:00:36;;;;;;;;;;;;;;;2.37;78.52;92195.72;2055271;70;20139;-73
2023/03/12 03:03:02;;;;;;;;;;;;;;;2.73;77.36;92200.00;2068369;69;20089;-74
2023/03/12 03:05:27;;;;;;;;;;;;;;;2.41;78.60;92207.16;2068435;69;20089;-74
2023/03/12 03:07:53;;;;;;;;;;;;;;;2.56;78.22;92200.72;2068411;69;20097;-75
2023/03/12 03:10:18;;;;;;;;;;;;;;;2.89;76.61;92204.09;2055231;69;20108;-75
2023/03/12 03:12:44;;;;;;;;;;;;;;;2.77;75.78;92211.44;2068557;69;20131;-75
2023/03/12 03:15:10;;;;;;;;;;;;;;;3.05;75.20;92213.72;2065471;69;20121;-73
2023/03/12 03:17:36;;;;;;;;;;;;;;;2.70;76.72;92213.00;2068196;69;20153;-75
2023/03/12 03:20:05;;;;;;;;;;;;;;;2.37;78.31;92222.75;2068345;69;20138;-73
2023/03/12 03:22:31;;;;;;;;;;;;;;;2.37;78.00;92220.72;2055306;69;20054;-75
2023/03/12 03:24:56;;;;;;;;;;;;;;;2.78;76.22;92216.41;2055320;70;20567;-74
2023/03/12 03:27:22;;;;;;;;;;;;;;;2.86;75.33;92213.56;2068399;69;20534;-74
2023/03/12 03:29:47;;;;;;;;;;;;;;;2.83;75.81;92213.97;2068152;69;20066;-73
2023/03/12 03:32:14;;;;;;;;;;;;;;;2.96;75.67;92219.19;2068424;69;20095;-75
2023/03/12 03:34:39;;;;;;;;;;;;;;;3.01;75.24;92210.59;2068321;69;20082;-74
2023/03/12 03:37:05;;;;;;;;;;;;;;;3.04;74.88;92223.38;2068180;69;20046;-74
2023/03/12 03:39:33;;;;;;;;;;;;;;;2.86;76.10;92224.69;2068385;69;20159;-74
2023/03/12 03:41:58;;;;;;;;;;;;;;;2.77;77.11;92217.00;2068308;69;20066;-75
2023/03/12 03:44:25;;;;;;;;;;;;;;;2.80;76.03;92219.38;2068301;69;20050;-75
2023/03/12 03:46:52;;;;;;;;;;;;;;;2.77;76.22;92214.22;2054925;70;20142;-73
2023/03/12 03:49:17;;;;;;;;;;;;;;;2.89;75.55;92215.22;2068287;69;20057;-73
2023/03/12 03:51:43;;;;;;;;;;;;;;;2.89;75.32;92220.75;2065555;69;20047;-75
2023/03/12 03:54:12;;;;;;;;;;;;;;;3.05;74.94;92212.97;2068279;69;20066;-74
2023/03/12 03:56:40;;;;;;;;;;;;;;;2.99;74.84;92221.56;2067743;69;20428;-75
2023/03/12 03:59:06;;;;;;;;;;;;;;;2.74;75.96;92216.09;2068303;69;20058;-75
2023/03/12 04:01:35;;;;;;;;;;;;;;;2.53;77.03;92210.22;2068028;69;20118;-73
2023/03/12 04:04:01;;;;;;;;;;;;;;;2.86;76.41;92221.16;2055117;70;20046;-75
2023/03/12 04:06:29;;;;;;;;;;;;;;;2.96;75.53;92228.28;2068068;69;20050;-73
2023/03/12 04:08:58;;;;;;;;;;;;;;;2.48;76.94;92233.41;2068248;69;20050;-74
2023/03/12 04:11:24;;;;;;;;;;;;;;;2.94;75.86;92230.91;2068293;69;20050;-75
2023/03/12 04:13:50;;;;;;;;;;;;;;;2.84;75.84;92234.88;2068447;69;20528;-76
2023/03/12 04:16:19;;;;;;;;;;;;;;;3.21;74.62;92233.00;2068273;69;20093;-76
2023/03/12 04:18:45;;;;;;;;;;;;;;;3.26;74.14;92232.75;2068220;69;20223;-75
2023/03/12 04:21:13;;;;;;;;;;;;;;;2.98;75.11;92236.06;2068434;69;20054;-75
2023/03/12 04:23:39;;;;;;;;;;;;;;;2.84;76.09;92229.31;2068867;69;20046;-74
2023/03/12 04:26:06;;;;;;;;;;;;;;;3.07;75.20;92229.84;2068866;69;20065;-75
2023/03/12 04:28:34;;;;;;;;;;;;;;;3.01;75.18;92234.91;2068919;69;20054;-76
2023/03/12 04:31:01;;;;;;;;;;;;;;;2.64;76.56;92242.31;2068730;69;20101;-75
2023/03/12 04:33:34;;;;;;;;;;;;;;;2.82;76.63;92235.47;2068737;69;20058;-75
2023/03/12 04:36:00;;;;;;;;;;;;;;;2.75;76.13;92239.09;2055839;70;20114;-76
2023/03/12 04:38:26;;;;;;;;;;;;;;;2.63;76.87;92244.38;2069005;69;20084;-76
2023/03/12 04:40:58;;;;;;;;;;;;;;;2.90;76.12;92243.75;2069044;69;20062;-74
2023/03/12 04:43:25;;;;;;;;;;;;;;;2.47;77.73;92243.03;2068874;69;20559;-76
2023/03/12 04:45:50;;;;;;;;;;;;;;;2.48;77.61;92242.47;2068889;69;20081;-74
2023/03/12 04:48:16;;;;;;;;;;;;;;;2.48;77.56;92244.53;2068770;69;20050;-76
2023/03/12 04:50:43;;;;;;;;;;;;;;;2.34;77.98;92240.56;2068832;69;20050;-75
2023/03/12 04:53:09;;;;;;;;;;;;;;;2.79;76.02;92240.16;2068916;69;20042;-76
2023/03/12 04:55:34;;;;;;;;;;;;;;;2.37;77.91;92242.19;2068866;69;20050;-74
2023/03/12 04:58:00;;;;;;;;;;;;;;;2.30;79.23;92238.19;2068437;69;20519;-73
2023/03/12 05:00:25;;;;;;;;;;;;;;;2.13;79.27;92247.22;2055838;70;20113;-75
2023/03/12 05:02:52;;;;;;;;;;;;;;;2.12;79.42;92251.28;2068528;69;20047;-75
2023/03/12 05:05:17;;;;;;;;;;;;;;;2.37;78.68;92248.50;2068840;69;20053;-75
2023/03/12 05:07:42;;;;;;;;;;;;;;;2.59;77.74;92260.72;2055875;70;20176;-75
2023/03/12 05:10:08;;;;;;;;;;;;;;;2.53;76.88;92252.63;2068766;69;20050;-74
2023/03/12 05:12:34;;;;;;;;;;;;;;;2.48;77.51;92255.63;2068877;69;20086;-76
2023/03/12 05:14:59;;;;;;;;;;;;;;;2.77;76.46;92247.56;2068882;69;20146;-75
2023/03/12 05:17:25;;;;;;;;;;;;;;;2.80;76.20;92247.16;2068670;69;20053;-75
2023/03/12 05:19:50;;;;;;;;;;;;;;;2.32;77.47;92260.56;2068794;69;20148;-75
2023/03/12 05:22:17;;;;;;;;;;;;;;;2.52;77.08;92261.50;2068806;69;20155;-74
2023/03/12 05:24:42;;;;;;;;;;;;;;;2.58;77.11;92269.63;2068907;69;20133;-75
2023/03/12 05:27:08;;;;;;;;;;;;;;;2.78;75.75;92274.78;2049622;70;20043;-74
2023/03/12 05:29:34;;;;;;;;;;;;;;;2.34;77.85;92276.66;2068759;69;20116;-74
2023/03/12 05:32:01;;;;;;;;;;;;;;;2.71;76.80;92286.72;2068600;69;20538;-74
2023/03/12 05:34:29;;;;;;;;;;;;;;;2.80;76.13;92277.75;2068561;69;20054;-74
2023/03/12 05:36:58;;;;;;;;;;;;;;;2.62;76.64;92284.59;2068784;69;20472;-74
2023/03/12 05:39:25;;;;;;;;;;;;;;;2.29;77.48;92276.34;2068868;69;20046;-74
2023/03/12 05:41:56;;;;;;;;;;;;;;;2.51;76.90;92265.59;2068910;69;20081;-74
2023/03/12 05:44:22;;;;;;;;;;;;;;;2.66;76.42;92267.53;2069987;69;20199;-74
2023/03/12 05:46:52;;;;;;;;;;;;;;;2.87;75.93;92276.19;2071099;69;20170;-74
2023/03/12 05:49:17;;;;;;;;;;;;;;;2.82;75.76;92287.56;2071150;69;20478;-74
2023/03/12 05:51:43;;;;;;;;;;;;;;;3.02;75.32;92278.84;2070996;69;20057;-73
2023/03/12 05:54:09;;;;;;;;;;;;;;;2.99;75.42;92293.13;2071477;69;20581;-74
2023/03/12 05:56:35;;;;;;;;;;;;;;;2.95;75.63;92301.88;2071287;69;20081;-75
2023/03/12 05:59:02;;;;;;;;;;;;;;;3.06;75.04;92297.88;2069103;69;20051;-74
2023/03/12 06:01:28;;;;;;;;;;;;;;;3.09;74.75;92290.44;2068732;69;20411;-75
2023/03/12 06:03:56;;;;;;;;;;;;;;;2.86;75.26;92288.63;2068673;69;20053;-73
2023/03/12 06:06:23;;;;;;;;;;;;;;;2.97;74.68;92295.75;2068767;69;20053;-76
2023/03/12 06:08:49;;;;;;;;;;;;;;;2.83;75.20;92277.91;2071536;69;20058;-76
2023/03/12 06:11:15;;;;;;;;;;;;;;;2.54;76.27;92273.53;2068659;69;20063;-76
2023/03/12 06:13:40;;;;;;;;;;;;;;;2.99;74.76;92271.63;2068588;69;20483;-74
2023/03/12 06:16:07;;;;;;;;;;;;;;;3.13;74.68;92291.50;2067164;69;20477;-74
2023/03/12 06:18:34;;;;;;;;;;;;;;;3.11;75.10;92301.72;2065454;69;20488;-74
2023/03/12 06:21:14;;;;;;;;;;;;;;;3.08;74.99;92306.41;2065211;69;20086;-75
2023/03/12 06:23:40;;;;;;;;;;;;;;;3.02;74.09;92300.31;2065197;69;20444;-76
2023/03/12 06:26:07;;;;;;;;;;;;;;;2.86;75.76;92305.31;2065226;69;20089;-73
2023/03/12 06:28:34;;;;;;;;;;;;;;;3.12;75.21;92294.88;2065397;69;20469;-75
2023/03/12 06:30:59;;;;;;;;;;;;;;;3.05;74.11;92294.34;2052310;69;20162;-73
2023/03/12 06:33:24;;;;;;;;;;;;;;;2.98;75.22;92297.22;2052204;70;20083;-75
2023/03/12 06:35:54;;;;;;;;;;;;;;;3.17;74.66;92293.88;2052346;70;20082;-74
2023/03/12 06:38:19;;;;;;;;;;;;;;;3.35;74.18;92291.84;2052455;70;20137;-74
2023/03/12 06:40:52;;;;;;;;;;;;;;;3.43;74.03;92298.75;2052468;70;20062;-75
2023/03/12 06:43:18;;;;;;;;;;;;;;;3.57;73.81;92296.38;2052350;70;20141;-74
2023/03/12 06:45:43;;;;;;;;;;;;;;;3.34;73.70;92304.97;2052466;69;20066;-76
2023/03/12 06:48:08;;;;;;;;;;;;;;;2.95;74.54;92304.66;2052531;70;20073;-75
2023/03/12 06:50:34;;;;;;;;;;;;;;;3.07;75.15;92302.16;2052206;70;20083;-72
2023/03/12 06:53:00;;;;;;;;;;;;;;;3.15;75.56;92302.06;2052306;70;20177;-73
2023/03/12 06:55:25;;;;;;;;;;;;;;;3.37;74.13;92312.19;2052419;69;20115;-73
2023/03/12 06:57:50;;;;;;;;;;;;;;;3.64;73.82;92312.25;2052315;70;20096;-75
2023/03/12 07:00:16;;;;;;;;;;;;;;;3.75;73.13;92316.56;2052226;70;20097;-74
2023/03/12 07:02:41;;;;;;;;;;;;;;;3.31;73.64;92320.06;2052190;69;20141;-74
2023/03/12 07:05:07;;;;;;;;;;;;;;;3.73;73.36;92322.72;2052281;70;20090;-77
2023/03/12 07:07:33;;;;;;;;;;;;;;;3.79;72.51;92325.97;2052347;70;20447;-75
2023/03/12 07:09:58;;;;;;;;;;;;;;;3.66;72.55;92333.94;2052267;70;20053;-77
2023/03/12 07:12:24;;;;;;;;;;;;;;;3.23;74.39;92345.16;2052476;69;20050;-75
2023/03/12 07:14:49;;;;;;;;;;;;;;;3.47;73.71;92338.03;2052586;70;20051;-76
2023/03/12 07:17:14;;;;;;;;;;;;;;;3.42;73.68;92346.66;2052334;70;20050;-76
2023/03/12 07:19:40;;;;;;;;;;;;;;;3.51;73.72;92334.84;2052153;69;20102;-74
2023/03/12 07:22:05;;;;;;;;;;;;;;;3.28;75.06;92337.88;2057789;69;20054;-77
2023/03/12 07:24:31;;;;;;;;;;;;;;;3.65;73.37;92327.63;2058964;69;20500;-75
2023/03/12 07:26:56;;;;;;;;;;;;;;;3.90;72.72;92310.09;2071973;69;20419;-75
2023/03/12 07:29:22;;;;;;;;;;;;;;;3.53;73.01;92307.94;2058882;69;20433;-74
2023/03/12 07:31:47;;;;;;;;;;;;;;;3.66;72.18;92317.25;2058800;69;20050;-74
2023/03/12 07:34:12;;;;;;;;;;;;;;;3.45;73.20;92326.03;2058746;69;20469;-76
2023/03/12 07:36:38;;;;;;;;;;;;;;;2.74;76.75;92332.84;2058952;69;20053;-76
2023/03/12 07:39:03;;;;;;;;;;;;;;;2.82;77.33;92334.81;2058920;69;20067;-76
2023/03/12 07:41:29;;;;;;;;;;;;;;;2.97;76.16;92349.31;2058815;69;20132;-76
2023/03/12 07:43:55;;;;;;;;;;;;;;;3.13;76.27;92349.91;2071720;69;20421;-76
2023/03/12 07:46:20;;;;;;;;;;;;;;;3.43;74.76;92350.91;2058672;69;20501;-76
2023/03/12 07:48:46;;;;;;;;;;;;;;;3.93;74.44;92361.81;2058612;69;20154;-76
2023/03/12 07:51:11;;;;;;;;;;;;;;;3.56;73.98;92356.88;2058464;69;20061;-75
2023/03/12 07:53:36;;;;;;;;;;;;;;;3.79;73.65;92347.50;2057740;69;20155;-74
2023/03/12 07:56:02;;;;;;;;;;;;;;;4.06;72.63;92344.75;2058958;69;20052;-75
2023/03/12 07:58:27;;;;;;;;;;;;;;;4.38;71.07;92340.97;2059176;69;20046;-74
2023/03/12 08:00:54;;;;;;;;;;;;;;;4.42;71.26;92349.66;2059089;69;20485;-75
2023/03/12 08:03:20;;;;;;;;;;;;;;;4.10;71.39;92330.41;2059010;69;20042;-75
2023/03/12 08:05:54;;;;;;;;;;;;;;;4.15;71.12;92330.16;2059108;69;20486;-76
2023/03/12 08:08:19;;;;;;;;;;;;;;;4.54;71.87;92338.72;2059145;69;20111;-74
2023/03/12 08:10:44;;;;;;;;;;;;;;;5.07;69.83;92357.38;2059157;69;20058;-74
2023/03/12 08:13:10;;;;;;;;;;;;;;;5.17;69.83;92362.97;2059241;69;20445;-75
2023/03/12 08:15:35;;;;;;;;;;;;;;;4.97;68.71;92364.25;2059122;69;20053;-76
2023/03/12 08:18:01;;;;;;;;;;;;;;;4.43;69.49;92356.69;2058861;69;20042;-74
2023/03/12 08:20:26;;;;;;;;;;;;;;;4.41;70.61;92359.34;2058829;69;20061;-74
2023/03/12 08:22:51;;;;;;;;;;;;;;;4.69;69.28;92344.03;2059218;69;20517;-74
2023/03/12 08:25:19;;;;;;;;;;;;;;;4.67;69.15;92334.78;2059206;69;20057;-73
2023/03/12 08:27:45;;;;;;;;;;;;;;;4.47;69.70;92331.19;2059151;69;20050;-74
2023/03/12 08:30:11;;;;;;;;;;;;;;;4.93;68.32;92330.47;2072277;69;20152;-74
2023/03/12 08:32:36;;;;;;;;;;;;;;;4.98;67.97;92326.66;2059066;69;20138;-76
2023/03/12 08:35:04;;;;;;;;;;;;;;;5.48;68.36;92329.66;2059091;69;20140;-76
2023/03/12 08:37:29;;;;;;;;;;;;;;;5.60;67.20;92336.16;2059179;69;20088;-76
2023/03/12 08:39:55;;;;;;;;;;;;;;;5.03;68.45;92345.16;2059054;69;20141;-75
2023/03/12 08:42:20;;;;;;;;;;;;;;;4.98;68.64;92366.44;2059052;69;20164;-74
2023/03/12 08:44:45;;;;;;;;;;;;;;;5.28;68.07;92364.47;2059173;69;20049;-75
2023/03/12 08:47:11;;;;;;;;;;;;;;;5.39;68.32;92375.06;2059184;69;20137;-74
2023/03/12 08:49:36;;;;;;;;;;;;;;;6.01;67.03;92381.00;2059015;69;20053;-74
2023/03/12 08:52:02;;;;;;;;;;;;;;;5.66;67.39;92369.34;2059152;69;20054;-74
2023/03/12 08:54:27;;;;;;;;;;;;;;;5.03;68.15;92375.84;2059078;69;20496;-75
2023/03/12 08:56:52;;;;;;;;;;;;;;;5.57;67.89;92398.00;2059222;69;20049;-76
2023/03/12 08:59:22;;;;;;;;;;;;;;;5.55;67.69;92395.09;2072352;69;20054;-74
2023/03/12 09:01:47;;;;;;;;;;;;;;;4.47;70.31;92393.25;2059253;69;20145;-78
2023/03/12 09:04:13;;;;;;;;;;;;;;;5.40;69.15;92398.84;2059882;69;20054;-76
2023/03/12 09:06:39;;;;;;;;;;;;;;;5.64;66.69;92397.16;2059373;69;20136;-76
2023/03/12 09:09:07;;;;;;;;;;;;;;;5.39;68.73;92399.44;2059408;69;20060;-76
2023/03/12 09:11:34;;;;;;;;;;;;;;;5.69;67.73;92393.31;2059195;69;20513;-77
2023/03/12 09:14:00;;;;;;;;;;;;;;;5.86;65.75;92393.19;2059186;69;20050;-76
2023/03/12 09:16:26;;;;;;;;;;;;;;;5.81;66.71;92393.47;2059128;69;20061;-76
2023/03/12 09:18:52;;;;;;;;;;;;;;;5.08;67.44;92386.72;2059184;69;20425;-78
2023/03/12 09:21:18;;;;;;;;;;;;;;;5.96;67.95;92382.03;2059058;69;20093;-74
2023/03/12 09:23:43;;;;;;;;;;;;;;;6.44;68.61;92383.28;2059110;69;20090;-75
2023/03/12 09:26:09;;;;;;;;;;;;;;;7.26;63.59;92381.22;2059068;69;20053;-76
2023/03/12 09:28:35;;;;;;;;;;;;;;;6.41;64.03;92396.38;2059106;69;20074;-73
2023/03/12 09:31:01;;;;;;;;;;;;;;;5.87;66.61;92393.94;2059106;69;20073;-73
2023/03/12 09:33:27;;;;;;;;;;;;;;;6.26;66.40;92397.44;2058833;69;20058;-76
2023/03/12 09:35:58;;;;;;;;;;;;;;;6.87;64.94;92400.97;2058995;69;20416;-77
2023/03/12 09:38:24;;;;;;;;;;;;;;;6.84;62.52;92421.78;2072231;69;20112;-73
2023/03/12 09:40:49;;;;;;;;;;;;;;;7.68;62.25;92408.56;2058944;69;20133;-74
2023/03/12 09:43:26;;;;;;;;;;;;;;;8.25;62.03;92406.66;2072067;69;20099;-77
2023/03/12 09:45:54;;;;;;;;;;;;;;;6.88;64.54;92422.78;2059052;69;20074;-76
2023/03/12 09:48:26;;;;;;;;;;;;;;;7.04;62.34;92409.16;2059011;69;20057;-75
2023/03/12 09:50:54;;;;;;;;;;;;;;;7.54;58.43;92411.13;2059103;69;20046;-75
2023/03/12 09:53:19;;;;;;;;;;;;;;;7.12;58.35;92429.31;2059026;69;20424;-76
2023/03/12 09:55:46;;;;;;;;;;;;;;;7.23;59.94;92421.63;2059010;69;20171;-76
2023/03/12 09:58:18;;;;;;;;;;;;;;;7.81;58.04;92433.25;2059036;69;20489;-77
2023/03/12 10:00:43;;;;;;;;;;;;;;;7.69;58.85;92442.91;2059096;69;20046;-77
2023/03/12 10:03:18;;;;;;;;;;;;;;;6.95;61.13;92448.38;2058885;69;20064;-75
2023/03/12 10:06:03;;;;;;;;;;;;;;;7.65;60.57;92437.75;2059230;69;20053;-77
2023/03/12 10:08:35;;;;;;;;;;;;;;;8.07;60.29;92451.06;2059070;69;20081;-75
2023/03/12 10:11:08;;;;;;;;;;;;;;;7.05;60.14;92440.69;2059181;69;20074;-76
2023/03/12 10:13:39;;;;;;;;;;;;;;;5.66;63.37;92446.81;2059002;69;20493;-75
2023/03/12 10:16:23;;;;;;;;;;;;;;;7.45;61.23;92433.59;2058937;69;20046;-75
2023/03/12 10:18:54;;;;;;;;;;;;;;;8.44;59.57;92408.59;2058725;69;20054;-75
2023/03/12 10:21:26;;;;;;;;;;;;;;;8.93;57.44;92399.66;2059223;69;20114;-76
2023/03/12 10:24:07;;;;;;;;;;;;;;;8.61;57.94;92396.31;2071897;69;20069;-75
2023/03/12 10:26:32;;;;;;;;;;;;;;;8.43;57.09;92403.56;2058872;69;20060;-75
2023/03/12 10:29:01;;;;;;;;;;;;;;;8.19;60.31;92416.75;2059049;69;20046;-76
2023/03/12 10:31:40;;;;;;;;;;;;;;;8.01;58.80;92430.31;2058875;69;20136;-76
2023/03/12 10:34:39;;;;;;;;;;;;;;;6.29;64.58;92438.22;2058814;69;20141;-76
2023/03/12 10:37:25;;;;;;;;;;;;;;;6.88;64.26;92447.25;2044714;70;20067;-74
2023/03/12 10:39:51;;;;;;;;;;;;;;;7.29;62.77;92453.59;2044836;70;20107;-76
2023/03/12 10:42:18;;;;;;;;;;;;;;;7.33;62.33;92456.66;2044904;70;20088;-74
2023/03/12 10:44:45;;;;;;;;;;;;;;;7.74;60.05;92459.38;2042155;70;20168;-75
2023/03/12 10:47:29;;;;;;;;;;;;;;;8.08;61.29;92438.53;2044931;70;20094;-74
2023/03/12 10:50:09;;;;;;;;;;;;;;;8.43;60.64;92437.22;2044900;70;20581;-75
2023/03/12 10:52:35;;;;;;;;;;;;;;;7.71;61.18;92418.56;2044917;70;20346;-75
2023/03/12 10:55:09;;;;;;;;;;;;;;;10.14;60.39;92425.16;2045014;70;20077;-76
2023/03/12 10:57:40;;;;;;;;;;;;;;;11.59;56.89;92419.03;2039366;70;20514;-75
2023/03/12 11:00:08;;;;;;;;;;;;;;;12.27;51.48;92423.22;2044861;70;20475;-75
2023/03/12 11:02:37;;;;;;;;;;;;;;;12.94;49.71;92432.88;2044696;70;20054;-76
2023/03/12 11:05:17;;;;;;;;;;;;;;;13.23;48.04;92425.75;2044786;70;20059;-74
2023/03/12 11:07:43;;;;;;;;;;;;;;;12.77;49.13;92435.56;2044843;70;20051;-74
2023/03/12 11:10:08;;;;;;;;;;;;;;;11.75;47.96;92456.56;2044893;70;20047;-73
2023/03/12 11:12:35;;;;;;;;;;;;;;;10.28;52.39;92459.03;2051405;69;20052;-74
2023/03/12 11:15:39;;;;;;;;;;;;;;;9.48;53.67;92454.31;2058993;69;20053;-74
2023/03/12 11:18:19;;;;;;;;;;;;;;;9.95;54.50;92454.31;2044766;70;20064;-74
2023/03/12 11:20:44;;;;;;;;;;;;;;;10.02;53.77;92444.13;2044796;70;20067;-74
2023/03/12 11:23:18;;;;;;;;;;;;;;;8.85;54.99;92456.78;2044812;70;20058;-74
2023/03/12 11:25:50;;;;;;;;;;;;;;;9.70;56.36;92449.31;2044795;70;20066;-72
2023/03/12 11:28:22;;;;;;;;;;;;;;;10.74;54.43;92446.16;2044816;70;20091;-73
2023/03/12 11:30:48;;;;;;;;;;;;;;;11.84;52.39;92452.09;2044753;70;20063;-73
2023/03/12 11:33:14;;;;;;;;;;;;;;;11.57;52.13;92444.31;2045096;70;20052;-73
2023/03/12 11:35:55;;;;;;;;;;;;;;;11.29;52.16;92441.44;2042267;70;20047;-73
2023/03/12 11:38:25;;;;;;;;;;;;;;;10.52;54.07;92449.16;2045067;70;20052;-74
2023/03/12 11:40:56;;;;;;;;;;;;;;;12.50;51.73;92439.91;2045132;70;20138;-74
2023/03/12 11:43:24;;;;;;;;;;;;;;;13.11;49.68;92428.00;2042444;70;20493;-74
2023/03/12 11:45:50;;;;;;;;;;;;;;;16.50;45.42;92431.94;2045182;70;20040;-74
2023/03/12 11:48:31;;;;;;;;;;;;;;;19.08;41.38;92436.81;2048782;69;20085;-74
2023/03/12 11:51:05;;;;;;;;;;;;;;;16.89;39.08;92427.59;2059000;69;20111;-74
2023/03/12 11:53:36;;;;;;;;;;;;;;;14.67;42.36;92433.50;2059303;69;20053;-74
2023/03/12 11:56:01;;;;;;;;;;;;;;;17.63;39.57;92432.75;2059264;69;20134;-74
2023/03/12 11:58:41;;;;;;;;;;;;;;;14.94;43.09;92438.16;2059163;69;20470;-74
2023/03/12 12:01:10;;;;;;;;;;;;;;;13.99;44.23;92441.22;2059158;69;20061;-74
2023/03/12 12:03:54;;;;;;;;;;;;;;;13.60;45.05;92455.72;2059004;69;20049;-75
2023/03/12 12:06:23;;;;;;;;;;;;;;;13.29;46.33;92459.97;2059221;69;20084;-74
2023/03/12 12:08:51;;;;;;;;;;;;;;;11.24;49.80;92453.84;2059196;69;20046;-75
2023/03/12 12:11:26;;;;;;;;;;;;;;;10.16;53.45;92464.66;2059282;69;20046;-75
2023/03/12 12:13:55;;;;;;;;;;;;;;;11.03;51.86;92468.16;2059297;69;20062;-74
2023/03/12 12:16:38;;;;;;;;;;;;;;;11.34;50.94;92462.84;2059198;69;20046;-76
2023/03/12 12:19:07;;;;;;;;;;;;;;;11.31;51.78;92469.72;2059168;69;20054;-76
2023/03/12 12:21:35;;;;;;;;;;;;;;;11.60;51.05;92465.63;2059111;69;20085;-76
2023/03/12 12:24:13;;;;;;;;;;;;;;;11.74;51.05;92454.38;2059270;69;20069;-76
2023/03/12 12:26:38;;;;;;;;;;;;;;;9.49;55.54;92443.81;2059156;69;20114;-75
2023/03/12 12:29:27;;;;;;;;;;;;;;;9.67;55.97;92433.69;2072149;69;20046;-75
2023/03/12 12:31:57;;;;;;;;;;;;;;;10.23;55.10;92420.75;2057401;69;20050;-76
2023/03/12 12:34:32;;;;;;;;;;;;;;;11.14;53.46;92420.22;2059091;69;20115;-75
2023/03/12 12:37:00;;;;;;;;;;;;;;;11.60;53.08;92418.44;2059209;69;20482;-75
2023/03/12 12:39:31;;;;;;;;;;;;;;;11.02;52.93;92405.47;2059202;69;20183;-76
2023/03/12 12:41:59;;;;;;;;;;;;;;;11.12;53.32;92411.66;2059102;69;20086;-75
2023/03/12 12:44:27;;;;;;;;;;;;;;;11.27;53.04;92418.03;2059164;69;20060;-75
2023/03/12 12:46:57;;;;;;;;;;;;;;;11.27;53.85;92424.44;2059327;69;20088;-75
2023/03/12 12:49:27;;;;;;;;;;;;;;;10.68;54.65;92430.38;2059091;69;20095;-75
2023/03/12 12:51:57;;;;;;;;;;;;;;;9.97;56.61;92426.28;2059283;69;20489;-75
2023/03/12 12:54:25;;;;;;;;;;;;;;;10.53;55.00;92439.38;2059258;69;20538;-75
2023/03/12 12:57:02;;;;;;;;;;;;;;;9.71;57.85;92441.59;2059260;69;20568;-74
2023/03/12 12:59:34;;;;;;;;;;;;;;;9.21;59.88;92437.19;2059121;69;20517;-75